Terminal Aerodrome Forecast
Issued by NWS

Home | Current Version | Previous Version | Text Only | Print | Product List | Glossary On
Versions: 1 2 3 4 5 6 7 8 9 10 11 12 13 14 15 16
000
FTUS44 KEWX 312324
TAFSSF
TAF
KSSF 312324Z 0100/0124 14014KT P6SM SCT060 SCT250
     FM010400 14007KT P6SM FEW250
     FM010800 16005KT P6SM BKN011
     FM011400 16004KT P6SM BKN025
     FM011600 16008KT P6SM BKN050
     FM012000 13014KT P6SM VCSH BKN060=

USA.gov is the U.S. government's official web portal to all federal, state and local government web resources and services.